Azure — ZCEE2 — position and weather

sailwx.info

Track history (hours):
 
Tides and Currents Weather Stations Pressure Air Temp Water Temp Dewpoint Dewpoint Depression Visibility Wind Speed Wind Dir Waves Ship Positions

Azure

Last reported at 2018-Oct-24 00:17 UTC. Time now 2018-Oct-24 05:11 UTC.
Position N 37°01' W 027°41'.

Length 289 m; draft 8.7 m.

Type: Passenger vessel. MMSI: 310610000.

Date/timePositionNaut miles runAvg speedWind from/ knotsBaromVisibWave heightAir tempDewpointWater temp
2018-Oct-24 00:17N 37°01' W 027°41'3314.7
2018-Oct-23 22:02N 37°14' W 027°02'016.9
2018-Oct-23 22:00N 37°14' W 027°02'714.5
2018-Oct-23 21:30N 37°16' W 026°53'614.5
2018-Oct-23 21:04N 37°19' W 026°46'113.4
2018-Oct-23 21:01N 37°19' W 026°45'714.6
2018-Oct-23 20:31N 37°22' W 026°37'714.6
2018-Oct-23 20:03N 37°24' W 026°29'114.9
2018-Oct-23 20:00N 37°24' W 026°28'714.5
2018-Oct-23 19:30N 37°27' W 026°19'614.2
2018-Oct-23 19:03N 37°29' W 026°12'114.1
2018-Oct-23 19:00N 37°29' W 026°11'714.8
2018-Oct-23 18:30N 37°32' W 026°02'714.6
2018-Oct-23 18:03N 37°35' W 025°55'114.5
2018-Oct-23 18:00N 37°35' W 025°54'714.3
2018-Oct-23 17:30N 37°39' W 025°46'715.3
2018-Oct-23 17:03N 37°43' W 025°39'0 8.7
2018-Oct-23 17:00N 37°44' W 025°39'1 1.5
2018-Oct-23 16:30N 37°44' W 025°40'0 0.0
2018-Oct-23 16:03N 37°44' W 025°40'0 0.0
2018-Oct-23 16:00N 37°44' W 025°40'0 0.0
2018-Oct-23 15:30N 37°44' W 025°40'0 0.0
2018-Oct-23 15:03N 37°44' W 025°40'0 0.1
2018-Oct-23 15:00N 37°44' W 025°40'0 0.0
2018-Oct-23 14:30N 37°44' W 025°40'0 0.0
2018-Oct-23 13:28N 37°44' W 025°40'0 0.0
2018-Oct-23 13:03N 37°44' W 025°40'0 0.1
2018-Oct-23 13:00N 37°44' W 025°40'0 0.0
2018-Oct-23 12:27N 37°44' W 025°40'0 0.0
2018-Oct-23 12:03N 37°44' W 025°40'0 0.0
2018-Oct-23 12:00N 37°44' W 025°40'0 0.0
2018-Oct-23 11:30N 37°44' W 025°40'0 0.0
2018-Oct-23 11:03N 37°44' W 025°40'0 0.0
2018-Oct-23 11:00N 37°44' W 025°40'0 0.0
2018-Oct-23 10:23N 37°44' W 025°40'0 0.0
2018-Oct-23 10:01N 37°44' W 025°40'0 0.0
2018-Oct-23 09:58N 37°44' W 025°40'0 0.0
2018-Oct-23 09:28N 37°44' W 025°40'0 0.0
2018-Oct-23 09:00N 37°44' W 025°40'0 0.5
2018-Oct-23 08:30N 37°44' W 025°39'1 2.2
2018-Oct-23 08:03N 37°43' W 025°40'0 9.0
2018-Oct-23 08:00N 37°43' W 025°39'713.6
2018-Oct-23 07:31N 37°41' W 025°31'614.2
2018-Oct-23 07:03N 37°41' W 025°23'114.5
2018-Oct-23 07:00N 37°41' W 025°22'714.5
2018-Oct-23 06:30N 37°42' W 025°13'715.2
2018-Oct-23 06:03N 37°45' W 025°05'115.0
2018-Oct-23 06:00N 37°45' W 025°05'815.7
2018-Oct-23 05:30N 37°51' W 024°57'715.6
2018-Oct-23 05:03N 37°55' W 024°51'116.3
2018-Oct-23 05:00N 37°56' W 024°50'815.6
2018-Oct-23 04:30N 38°01' W 024°43'715.5
2018-Oct-23 04:03N 38°06' W 024°36'115.9
2018-Oct-23 04:00N 38°06' W 024°35'815.4
2018-Oct-23 03:30N 38°12' W 024°28'715.7
2018-Oct-23 03:03N 38°16' W 024°22'116.8
2018-Oct-23 03:00N 38°17' W 024°21'816.6
2018-Oct-23 02:30N 38°23' W 024°13'716.5
2018-Oct-23 02:03N 38°28' W 024°06'119.1
2018-Oct-23 02:00N 38°28' W 024°05'815.9
2018-Oct-23 01:30N 38°34' W 023°58'67415.8
2018-Oct-21 07:00N 46°06' W 012°42'10215.9 040 / 151018.9 14.5 9.715.0
2018-Oct-21 00:33N 47°19' W 010°58'3513.8
2018-Oct-20 22:00N 47°42' W 010°18'4622.0 050 / 121029.410.8 15.312.616.0
2018-Oct-20 19:53N 48°14' W 009°27'717.1
2018-Oct-20 19:30N 48°17' W 009°19'1617.2
2018-Oct-20 18:36N 48°22' W 008°56'817.9
2018-Oct-20 18:09N 48°25' W 008°45'417.4
2018-Oct-20 17:56N 48°27' W 008°40'2017.5
2018-Oct-20 16:48N 48°35' W 008°13'5 6.1
2018-Oct-20 16:00N 48°36' W 008°06'3124.3 100 / 121029.910.8 15.512.815.0
2018-Oct-20 14:44N 48°50' W 007°25'2916.2
2018-Oct-20 12:55N 49°03' W 006°44'815.6
2018-Oct-20 12:22N 49°06' W 006°33'515.7
2018-Oct-20 12:03N 49°08' W 006°26'115.8
2018-Oct-20 12:00N 49°09' W 006°25'815.8
2018-Oct-20 11:29N 49°12' W 006°13'816.0
2018-Oct-20 10:59N 49°16' W 006°02'816.0
2018-Oct-20 10:30N 49°19' W 005°51'716.2
2018-Oct-20 10:03N 49°22' W 005°41'116.4
2018-Oct-20 10:00N 49°22' W 005°40'7420.5
2018-Oct-20 10:00N 49°18' W 005°48'1826.3 100 / 131032.210.8 14.412.815.0
2018-Oct-20 09:18N 49°27' W 005°24'417.0
2018-Oct-20 09:03N 49°29' W 005°18'117.0
2018-Oct-20 09:00N 49°29' W 005°17'815.4
2018-Oct-20 08:28N 49°33' W 005°06'614.8
2018-Oct-20 08:03N 49°36' W 004°57'314.7
2018-Oct-20 07:50N 49°37' W 004°52'614.9
2018-Oct-20 07:26N 49°39' W 004°44'814.9
2018-Oct-20 06:53N 49°43' W 004°32'614.9
2018-Oct-20 06:30N 49°45' W 004°25'715.1
2018-Oct-20 06:02N 49°48' W 004°15'215.2
2018-Oct-20 05:55N 49°49' W 004°12'815.2
2018-Oct-20 05:24N 49°52' W 004°01'515.0
2018-Oct-20 05:03N 49°54' W 003°53'114.9
2018-Oct-20 05:00N 49°54' W 003°52'1314.8
2018-Oct-20 04:06N 49°60' W 003°33'514.4
2018-Oct-20 03:43N 50°01' W 003°25'314.2
2018-Oct-20 03:30N 50°02' W 003°21'714.4
2018-Oct-20 02:59N 50°06' W 003°11'1014.7
2018-Oct-20 02:17N 50°11' W 002°57'1414.8
2018-Oct-20 01:22N 50°15' W 002°37'715.1
2018-Oct-20 00:54N 50°17' W 002°26'615.4
2018-Oct-20 00:30N 50°19' W 002°17'715.7
2018-Oct-20 00:03N 50°21' W 002°07'116.5
2018-Oct-20 00:00N 50°22' W 002°05'816.6
2018-Oct-19 23:30N 50°24' W 001°53'715.4
2018-Oct-19 23:03N 50°26' W 001°42'116.2
2018-Oct-19 23:00N 50°26' W 001°41'1016.3
2018-Oct-19 22:24N 50°29' W 001°26'616.4
2018-Oct-19 22:03N 50°31' W 001°18'116.7
2018-Oct-19 22:00N 50°31' W 001°16'816.6
2018-Oct-19 21:30N 50°33' W 001°04'714.6
2018-Oct-19 21:03N 50°39' W 000°59'116.8
2018-Oct-19 21:00N 50°40' W 000°58'510.6
2018-Oct-19 20:31N 50°44' W 001°04'817.2
2018-Oct-19 20:03N 50°46' W 001°16'116.5
2018-Oct-19 20:00N 50°46' W 001°17'5 9.6
2018-Oct-19 19:31N 50°51' W 001°20'4 8.1
2018-Oct-19 19:03N 50°53' W 001°24'0 0.6
2018-Oct-19 19:00N 50°53' W 001°24'0 0.0
2018-Oct-19 18:29N 50°53' W 001°24'0 0.0
2018-Oct-19 18:02N 50°53' W 001°24'0 0.0
2018-Oct-19 17:56N 50°53' W 001°24'0 0.0
2018-Oct-19 17:29N 50°53' W 001°24'0 0.0
2018-Oct-19 17:03N 50°53' W 001°24'0 0.0
2018-Oct-19 16:59N 50°53' W 001°24'0 0.0
2018-Oct-19 16:29N 50°53' W 001°24'0 0.0
2018-Oct-19 15:59N 50°53' W 001°24'0 0.0
2018-Oct-19 15:29N 50°53' W 001°24'0 0.0
2018-Oct-19 15:02N 50°53' W 001°24'0 0.0
2018-Oct-19 14:59N 50°53' W 001°24'0 0.0
2018-Oct-19 14:29N 50°53' W 001°24'0 0.0
2018-Oct-19 13:29N 50°53' W 001°24'0 0.0
2018-Oct-19 13:02N 50°53' W 001°24'0 0.0
2018-Oct-19 12:59N 50°53' W 001°24'0 0.0
2018-Oct-19 12:29N 50°53' W 001°24'0 0.0
2018-Oct-19 12:02N 50°53' W 001°24'0 0.0
2018-Oct-19 11:59N 50°53' W 001°24'0 0.0
2018-Oct-19 11:29N 50°53' W 001°24'0 0.0
2018-Oct-19 11:02N 50°53' W 001°24'0 0.0
2018-Oct-19 10:59N 50°53' W 001°24'0 0.0
2018-Oct-19 10:29N 50°53' W 001°24'0 0.0
2018-Oct-19 10:02N 50°53' W 001°24'0 0.0
2018-Oct-19 09:56N 50°53' W 001°24'0 0.0
2018-Oct-19 09:28N 50°53' W 001°24'0 0.0
2018-Oct-19 09:01N 50°53' W 001°24'0 0.1
2018-Oct-19 08:58N 50°53' W 001°24'0 0.0
2018-Oct-19 08:28N 50°53' W 001°24'0 0.0
2018-Oct-19 08:03N 50°53' W 001°24'0 0.1
2018-Oct-19 07:57N 50°53' W 001°24'0 0.0
2018-Oct-19 07:27N 50°53' W 001°24'0 0.0
2018-Oct-19 07:02N 50°53' W 001°24'0 0.1
2018-Oct-19 06:59N 50°53' W 001°24'0 0.0
2018-Oct-19 06:29N 50°53' W 001°24'0 0.0
2018-Oct-19 06:01N 50°53' W 001°24'0 0.0
2018-Oct-19 05:58N 50°53' W 001°24'0 0.4
2018-Oct-19 05:30N 50°53' W 001°24'2 4.3
2018-Oct-19 05:03N 50°52' W 001°22'111.6
2018-Oct-19 05:00N 50°52' W 001°21'4 8.5
2018-Oct-19 04:30N 50°48' W 001°18'4 9.5
2018-Oct-19 04:03N 50°46' W 001°12'117.4
2018-Oct-19 04:00N 50°46' W 001°11'816.3
2018-Oct-19 03:30N 50°43' W 000°59'510.6
2018-Oct-19 03:03N 50°38' W 000°58'010.0
2018-Oct-19 03:00N 50°37' W 000°58'5 9.4
2018-Oct-19 02:31N 50°34' W 000°54'511.7
2018-Oct-19 02:04N 50°33' W 000°46'111.9
2018-Oct-19 02:01N 50°33' W 000°45'612.2
2018-Oct-19 01:31N 50°32' W 000°36'612.7
2018-Oct-19 01:02N 50°31' W 000°26'112.8
2018-Oct-19 00:56N 50°31' W 000°24'1511.5
2018-Oct-18 23:38N 50°17' W 000°17'1113.7
2018-Oct-18 22:48N 50°06' W 000°10'412.9
2018-Oct-18 22:30N 50°02' W 000°08'512.0
2018-Oct-18 22:03N 50°01' W 000°16'112.1
2018-Oct-18 21:59N 50°00' W 000°17'612.1
2018-Oct-18 21:30N 49°59' W 000°26'511.8
2018-Oct-18 21:03N 49°58' W 000°34'111.7
2018-Oct-18 21:00N 49°57' W 000°35'8517.1
2018-Oct-18 21:00N 49°54' W 000°24'1326.4 040 / 301024.510.8 14.611.417.0
2018-Oct-18 20:30N 49°56' W 000°44'511.7
2018-Oct-18 20:03N 49°55' W 000°52'111.8
2018-Oct-18 20:00N 49°55' W 000°53'611.9
2018-Oct-18 19:31N 49°54' W 001°02'512.0
2018-Oct-18 19:04N 49°53' W 001°10'112.2
2018-Oct-18 19:01N 49°52' W 001°11'611.8
2018-Oct-18 18:30N 49°51' W 001°20'511.2
2018-Oct-18 18:03N 49°50' W 001°27'111.6
2018-Oct-18 18:00N 49°50' W 001°28'611.5
2018-Oct-18 17:31N 49°47' W 001°36'510.5
2018-Oct-18 17:03N 49°44' W 001°41'111.9
2018-Oct-18 17:01N 49°43' W 001°40'4 8.1
2018-Oct-18 16:30N 49°40' W 001°37'1 1.8
2018-Oct-18 16:01N 49°39' W 001°37'0 0.0
2018-Oct-18 15:58N 49°39' W 001°37'0 0.0
2018-Oct-18 15:28N 49°39' W 001°37'0 0.0
2018-Oct-18 15:01N 49°39' W 001°37'0 0.0
2018-Oct-18 14:58N 49°39' W 001°37'0 0.0
2018-Oct-18 14:28N 49°39' W 001°37'0 0.0
2018-Oct-18 13:58N 49°39' W 001°37'0 0.0
2018-Oct-18 13:28N 49°39' W 001°37'0 0.0
2018-Oct-18 13:01N 49°39' W 001°37'0 0.0
2018-Oct-18 12:58N 49°39' W 001°37'0 0.0
2018-Oct-18 12:28N 49°39' W 001°37'0 0.0
2018-Oct-18 12:01N 49°39' W 001°37'0 0.0
2018-Oct-18 11:58N 49°39' W 001°37'0 0.0
2018-Oct-18 11:28N 49°39' W 001°37'0 0.0
2018-Oct-18 11:01N 49°39' W 001°37'0 0.0
2018-Oct-18 10:58N 49°39' W 001°37'0 0.0
2018-Oct-18 10:28N 49°39' W 001°37'0 0.0
2018-Oct-18 10:01N 49°39' W 001°37'0 0.0
2018-Oct-18 09:58N 49°39' W 001°37'0 0.0
2018-Oct-18 09:28N 49°39' W 001°37'0 0.0
2018-Oct-18 09:01N 49°39' W 001°37'0 0.0
2018-Oct-18 08:58N 49°39' W 001°37'0 0.0
2018-Oct-18 08:28N 49°39' W 001°37'0 0.0
2018-Oct-18 08:01N 49°39' W 001°37'0 0.0
2018-Oct-18 07:58N 49°39' W 001°37'0 0.0
2018-Oct-18 07:28N 49°39' W 001°37'0 0.0
2018-Oct-18 07:01N 49°39' W 001°37'0 0.0
2018-Oct-18 06:58N 49°39' W 001°37'0 0.0
2018-Oct-18 06:28N 49°39' W 001°37'0 0.0
2018-Oct-18 06:01N 49°39' W 001°37'0 0.0
2018-Oct-18 05:58N 49°39' W 001°37'0 0.0
2018-Oct-18 05:30N 49°39' W 001°37'1 2.0
2018-Oct-18 05:04N 49°40' W 001°37'0 5.3
2018-Oct-18 05:00N 49°40' W 001°37'510.4
2018-Oct-18 04:30N 49°44' W 001°43'511.3
2018-Oct-18 04:03N 49°47' W 001°49'113.5
2018-Oct-18 04:01N 49°47' W 001°50'815.4
2018-Oct-18 03:30N 49°49' W 002°02'1115.7
2018-Oct-18 02:47N 49°52' W 002°18'1017.8
2018-Oct-18 02:13N 49°51' W 002°34'318.4
2018-Oct-18 02:03N 49°50' W 002°39'218.4
2018-Oct-18 01:58N 49°50' W 002°41'1618.1
2018-Oct-18 01:04N 49°42' W 003°03'6518.1
2018-Oct-17 21:29N 49°03' W 004°23'3 6.3
2018-Oct-17 21:00N 49°00' W 004°24'8131.3 030 / 181021.510.8 14.412.814.0
2018-Oct-17 20:56N 48°57' W 004°35'817.9
2018-Oct-17 20:30N 48°53' W 004°45'818.0
2018-Oct-17 20:03N 48°48' W 004°54'117.9
2018-Oct-17 20:00N 48°47' W 004°56'917.6
2018-Oct-17 19:30N 48°42' W 005°06'817.5
2018-Oct-17 19:03N 48°37' W 005°15'117.5
2018-Oct-17 19:00N 48°36' W 005°16'917.0
2018-Oct-17 18:30N 48°30' W 005°25'1316.9
2018-Oct-17 17:43N 48°19' W 005°36'40018.9
2018-Oct-16 20:35N 42°12' W 009°22'1418.8
2018-Oct-16 19:49N 41°58' W 009°15'4618.0
2018-Oct-16 17:15N 41°14' W 008°54'516.8
2018-Oct-16 16:58N 41°10' W 008°52'714.5
2018-Oct-16 16:30N 41°06' W 008°45'510.5
2018-Oct-16 16:03N 41°11' W 008°42'0 1.4
2018-Oct-16 16:00N 41°11' W 008°42'0 0.2
2018-Oct-16 15:30N 41°11' W 008°42'0 0.0
2018-Oct-16 15:02N 41°11' W 008°42'0 0.0
2018-Oct-16 14:59N 41°11' W 008°42'0 0.0
2018-Oct-16 14:02N 41°11' W 008°42'0 0.1
2018-Oct-16 13:59N 41°11' W 008°42'0 0.0
2018-Oct-16 13:29N 41°11' W 008°42'0 0.0
2018-Oct-16 13:00N 41°11' W 008°42'0 0.0
2018-Oct-16 12:30N 41°11' W 008°42'0 0.0
2018-Oct-16 12:02N 41°11' W 008°42'0 0.0
2018-Oct-16 11:59N 41°11' W 008°42'0 0.0
2018-Oct-16 11:29N 41°11' W 008°42'0 0.0
2018-Oct-16 11:04N 41°11' W 008°42'0 0.0
2018-Oct-16 10:58N 41°11' W 008°42'0 0.0
2018-Oct-16 10:28N 41°11' W 008°42'0 0.0
2018-Oct-16 10:03N 41°11' W 008°42'0 0.0
2018-Oct-16 09:59N 41°11' W 008°42'0 0.0
2018-Oct-16 09:30N 41°11' W 008°42'0 0.0
2018-Oct-16 09:01N 41°11' W 008°42'0 0.0
2018-Oct-16 08:58N 41°11' W 008°42'0 0.0
2018-Oct-16 08:30N 41°11' W 008°42'0 0.0
2018-Oct-16 08:02N 41°11' W 008°42'0 0.0
2018-Oct-16 07:59N 41°11' W 008°42'0 0.3
2018-Oct-16 07:30N 41°11' W 008°42'2 4.1
2018-Oct-16 07:03N 41°09' W 008°42'110.2
2018-Oct-16 07:00N 41°08' W 008°43'611.5
2018-Oct-16 06:30N 41°04' W 008°47'9713.8
2018-Oct-15 23:29N 39°36' W 009°41'715.1
2018-Oct-15 23:03N 39°29' W 009°43'115.2
2018-Oct-15 22:59N 39°28' W 009°43'715.0
2018-Oct-15 22:30N 39°21' W 009°43'614.3
2018-Oct-15 22:04N 39°15' W 009°43'114.3
2018-Oct-15 22:00N 39°14' W 009°43'714.2
2018-Oct-15 21:30N 39°07' W 009°43'714.7
2018-Oct-15 21:03N 39°00' W 009°43'114.3
2018-Oct-15 21:00N 38°60' W 009°43'714.2
2018-Oct-15 20:30N 38°52' W 009°43'613.8
2018-Oct-15 20:03N 38°46' W 009°42'113.7
2018-Oct-15 20:00N 38°46' W 009°42'713.6
2018-Oct-15 19:31N 38°39' W 009°40'715.6
2018-Oct-15 19:04N 38°36' W 009°31'115.6
2018-Oct-15 19:01N 38°36' W 009°30'714.7
2018-Oct-15 18:30N 38°38' W 009°21'613.7
2018-Oct-15 18:03N 38°41' W 009°14'1 9.3
2018-Oct-15 18:00N 38°41' W 009°13'4 9.1
2018-Oct-15 17:30N 38°42' W 009°08'0 1.0
2018-Oct-15 17:03N 38°43' W 009°08'0 0.0
2018-Oct-15 17:00N 38°43' W 009°08'0 0.0
2018-Oct-15 16:30N 38°43' W 009°08'0 0.0
2018-Oct-15 16:01N 38°43' W 009°08'0 0.0
2018-Oct-15 15:58N 38°43' W 009°08'0 0.0
2018-Oct-15 15:30N 38°43' W 009°08'0 0.0
2018-Oct-15 15:02N 38°43' W 009°08'0 0.0
2018-Oct-15 15:00N 38°43' W 009°08'0 0.0
2018-Oct-15 14:30N 38°43' W 009°08'0 0.0
2018-Oct-15 13:59N 38°43' W 009°08'0 0.0
2018-Oct-15 13:28N 38°43' W 009°08'0 0.0
2018-Oct-15 13:03N 38°43' W 009°08'0 0.0
2018-Oct-15 13:00N 38°43' W 009°08'0 0.0
2018-Oct-15 12:28N 38°43' W 009°08'0 0.0
2018-Oct-15 12:01N 38°43' W 009°08'0 0.0
2018-Oct-15 12:01N 38°43' W 009°08'0 0.0
2018-Oct-15 11:30N 38°43' W 009°08'0 0.0
2018-Oct-15 11:02N 38°43' W 009°08'0 0.0
2018-Oct-15 10:59N 38°43' W 009°08'0 0.0
2018-Oct-15 10:29N 38°43' W 009°08'0 0.0
2018-Oct-15 10:04N 38°43' W 009°08'0 0.0
2018-Oct-15 10:01N 38°43' W 009°08'0 0.0
2018-Oct-15 09:29N 38°43' W 009°08'0 0.0
2018-Oct-15 09:03N 38°43' W 009°08'0 0.0
2018-Oct-15 09:00N 38°43' W 009°08'0 0.0
2018-Oct-15 08:29N 38°43' W 009°08'0 0.0
2018-Oct-15 08:04N 38°43' W 009°08'0 0.0
2018-Oct-15 07:59N 38°43' W 009°08'0 0.0
2018-Oct-15 07:28N 38°43' W 009°08'0 0.0
2018-Oct-15 07:03N 38°43' W 009°08'0 0.0
2018-Oct-15 07:00N 38°43' W 009°08'0 0.2
2018-Oct-15 06:30N 38°42' W 009°08'510.1
2018-Oct-15 06:03N 38°41' W 009°13'0 8.9
2018-Oct-15 06:00N 38°41' W 009°14'510.6
2018-Oct-15 05:30N 38°39' W 009°20'612.6
2018-Oct-15 05:03N 38°35' W 009°25'112.5
2018-Oct-15 05:00N 38°35' W 009°26'612.5
2018-Oct-15 04:30N 38°34' W 009°34'612.8
2018-Oct-15 04:03N 38°34' W 009°41'112.8
2018-Oct-15 04:00N 38°34' W 009°42'612.8
2018-Oct-15 03:30N 38°33' W 009°50'612.7
2018-Oct-15 03:03N 38°35' W 009°57'112.9
2018-Oct-15 03:00N 38°35' W 009°58'611.2
2018-Oct-15 02:30N 38°38' W 010°04'613.3
2018-Oct-15 02:03N 38°44' W 010°06'112.1
2018-Oct-15 02:00N 38°44' W 010°06'713.5
2018-Oct-15 01:30N 38°51' W 010°06'613.4
2018-Oct-15 01:03N 38°57' W 010°06'113.7
2018-Oct-15 01:00N 38°58' W 010°06'713.8
2018-Oct-15 00:30N 39°05' W 010°06'614.1
2018-Oct-15 00:03N 39°11' W 010°06'116.0
2018-Oct-15 00:00N 39°12' W 010°06'815.6
2018-Oct-14 23:30N 39°20' W 010°06'715.0
2018-Oct-14 23:02N 39°27' W 010°06'115.2
2018-Oct-14 22:59N 39°27' W 010°06'  
Track history (hours):
 
Tides and Currents Weather Stations Pressure Air Temp Water Temp Dewpoint Dewpoint Depression Visibility Wind Speed Wind Dir Waves Ship Positions

Azure

Last reported at 2018-Oct-24 00:17 UTC. Time now 2018-Oct-24 05:11 UTC.
Position N 37°01' W 027°41'.

Length 289 m; draft 8.7 m.

Type: Passenger vessel. MMSI: 310610000.

Date/timePositionNaut miles runAvg speedWind from/ knotsBaromVisibWave heightAir tempDewpointWater temp
2018-Oct-24 00:17N 37°01' W 027°41'3314.7
2018-Oct-23 22:02N 37°14' W 027°02'016.9
2018-Oct-23 22:00N 37°14' W 027°02'714.5
2018-Oct-23 21:30N 37°16' W 026°53'614.5
2018-Oct-23 21:04N 37°19' W 026°46'113.4
2018-Oct-23 21:01N 37°19' W 026°45'714.6
2018-Oct-23 20:31N 37°22' W 026°37'714.6
2018-Oct-23 20:03N 37°24' W 026°29'114.9
2018-Oct-23 20:00N 37°24' W 026°28'714.5
2018-Oct-23 19:30N 37°27' W 026°19'614.2
2018-Oct-23 19:03N 37°29' W 026°12'114.1
2018-Oct-23 19:00N 37°29' W 026°11'714.8
2018-Oct-23 18:30N 37°32' W 026°02'714.6
2018-Oct-23 18:03N 37°35' W 025°55'114.5
2018-Oct-23 18:00N 37°35' W 025°54'714.3
2018-Oct-23 17:30N 37°39' W 025°46'715.3
2018-Oct-23 17:03N 37°43' W 025°39'0 8.7
2018-Oct-23 17:00N 37°44' W 025°39'1 1.5
2018-Oct-23 16:30N 37°44' W 025°40'0 0.0
2018-Oct-23 16:03N 37°44' W 025°40'0 0.0
2018-Oct-23 16:00N 37°44' W 025°40'0 0.0
2018-Oct-23 15:30N 37°44' W 025°40'0 0.0
2018-Oct-23 15:03N 37°44' W 025°40'0 0.1
2018-Oct-23 15:00N 37°44' W 025°40'0 0.0
2018-Oct-23 14:30N 37°44' W 025°40'0 0.0
2018-Oct-23 13:28N 37°44' W 025°40'0 0.0
2018-Oct-23 13:03N 37°44' W 025°40'0 0.1
2018-Oct-23 13:00N 37°44' W 025°40'0 0.0
2018-Oct-23 12:27N 37°44' W 025°40'0 0.0
2018-Oct-23 12:03N 37°44' W 025°40'0 0.0
2018-Oct-23 12:00N 37°44' W 025°40'0 0.0
2018-Oct-23 11:30N 37°44' W 025°40'0 0.0
2018-Oct-23 11:03N 37°44' W 025°40'0 0.0
2018-Oct-23 11:00N 37°44' W 025°40'0 0.0
2018-Oct-23 10:23N 37°44' W 025°40'0 0.0
2018-Oct-23 10:01N 37°44' W 025°40'0 0.0
2018-Oct-23 09:58N 37°44' W 025°40'0 0.0
2018-Oct-23 09:28N 37°44' W 025°40'0 0.0
2018-Oct-23 09:00N 37°44' W 025°40'0 0.5
2018-Oct-23 08:30N 37°44' W 025°39'1 2.2
2018-Oct-23 08:03N 37°43' W 025°40'0 9.0
2018-Oct-23 08:00N 37°43' W 025°39'713.6
2018-Oct-23 07:31N 37°41' W 025°31'614.2
2018-Oct-23 07:03N 37°41' W 025°23'114.5
2018-Oct-23 07:00N 37°41' W 025°22'714.5
2018-Oct-23 06:30N 37°42' W 025°13'715.2
2018-Oct-23 06:03N 37°45' W 025°05'115.0
2018-Oct-23 06:00N 37°45' W 025°05'815.7
2018-Oct-23 05:30N 37°51' W 024°57'715.6
2018-Oct-23 05:03N 37°55' W 024°51'116.3
2018-Oct-23 05:00N 37°56' W 024°50'815.6
2018-Oct-23 04:30N 38°01' W 024°43'715.5
2018-Oct-23 04:03N 38°06' W 024°36'115.9
2018-Oct-23 04:00N 38°06' W 024°35'815.4
2018-Oct-23 03:30N 38°12' W 024°28'715.7
2018-Oct-23 03:03N 38°16' W 024°22'116.8
2018-Oct-23 03:00N 38°17' W 024°21'816.6
2018-Oct-23 02:30N 38°23' W 024°13'716.5
2018-Oct-23 02:03N 38°28' W 024°06'119.1
2018-Oct-23 02:00N 38°28' W 024°05'815.9
2018-Oct-23 01:30N 38°34' W 023°58'67415.8
2018-Oct-21 07:00N 46°06' W 012°42'10215.9 040 / 151018.9 14.5 9.715.0
2018-Oct-21 00:33N 47°19' W 010°58'3513.8
2018-Oct-20 22:00N 47°42' W 010°18'4622.0 050 / 121029.410.8 15.312.616.0
2018-Oct-20 19:53N 48°14' W 009°27'717.1
2018-Oct-20 19:30N 48°17' W 009°19'1617.2
2018-Oct-20 18:36N 48°22' W 008°56'817.9
2018-Oct-20 18:09N 48°25' W 008°45'417.4
2018-Oct-20 17:56N 48°27' W 008°40'2017.5
2018-Oct-20 16:48N 48°35' W 008°13'5 6.1
2018-Oct-20 16:00N 48°36' W 008°06'3124.3 100 / 121029.910.8 15.512.815.0
2018-Oct-20 14:44N 48°50' W 007°25'2916.2
2018-Oct-20 12:55N 49°03' W 006°44'815.6
2018-Oct-20 12:22N 49°06' W 006°33'515.7
2018-Oct-20 12:03N 49°08' W 006°26'115.8
2018-Oct-20 12:00N 49°09' W 006°25'815.8
2018-Oct-20 11:29N 49°12' W 006°13'816.0
2018-Oct-20 10:59N 49°16' W 006°02'816.0
2018-Oct-20 10:30N 49°19' W 005°51'716.2
2018-Oct-20 10:03N 49°22' W 005°41'116.4
2018-Oct-20 10:00N 49°22' W 005°40'7420.5
2018-Oct-20 10:00N 49°18' W 005°48'1826.3 100 / 131032.210.8 14.412.815.0
2018-Oct-20 09:18N 49°27' W 005°24'417.0
2018-Oct-20 09:03N 49°29' W 005°18'117.0
2018-Oct-20 09:00N 49°29' W 005°17'815.4
2018-Oct-20 08:28N 49°33' W 005°06'614.8
2018-Oct-20 08:03N 49°36' W 004°57'314.7
2018-Oct-20 07:50N 49°37' W 004°52'614.9
2018-Oct-20 07:26N 49°39' W 004°44'814.9
2018-Oct-20 06:53N 49°43' W 004°32'614.9
2018-Oct-20 06:30N 49°45' W 004°25'715.1
2018-Oct-20 06:02N 49°48' W 004°15'215.2
2018-Oct-20 05:55N 49°49' W 004°12'815.2
2018-Oct-20 05:24N 49°52' W 004°01'515.0
2018-Oct-20 05:03N 49°54' W 003°53'114.9
2018-Oct-20 05:00N 49°54' W 003°52'1314.8
2018-Oct-20 04:06N 49°60' W 003°33'514.4
2018-Oct-20 03:43N 50°01' W 003°25'314.2
2018-Oct-20 03:30N 50°02' W 003°21'714.4
2018-Oct-20 02:59N 50°06' W 003°11'1014.7
2018-Oct-20 02:17N 50°11' W 002°57'1414.8
2018-Oct-20 01:22N 50°15' W 002°37'715.1
2018-Oct-20 00:54N 50°17' W 002°26'615.4
2018-Oct-20 00:30N 50°19' W 002°17'715.7
2018-Oct-20 00:03N 50°21' W 002°07'116.5
2018-Oct-20 00:00N 50°22' W 002°05'816.6
2018-Oct-19 23:30N 50°24' W 001°53'715.4
2018-Oct-19 23:03N 50°26' W 001°42'116.2
2018-Oct-19 23:00N 50°26' W 001°41'1016.3
2018-Oct-19 22:24N 50°29' W 001°26'616.4
2018-Oct-19 22:03N 50°31' W 001°18'116.7
2018-Oct-19 22:00N 50°31' W 001°16'816.6
2018-Oct-19 21:30N 50°33' W 001°04'714.6
2018-Oct-19 21:03N 50°39' W 000°59'116.8
2018-Oct-19 21:00N 50°40' W 000°58'510.6
2018-Oct-19 20:31N 50°44' W 001°04'817.2
2018-Oct-19 20:03N 50°46' W 001°16'116.5
2018-Oct-19 20:00N 50°46' W 001°17'5 9.6
2018-Oct-19 19:31N 50°51' W 001°20'4 8.1
2018-Oct-19 19:03N 50°53' W 001°24'0 0.6
2018-Oct-19 19:00N 50°53' W 001°24'0 0.0
2018-Oct-19 18:29N 50°53' W 001°24'0 0.0
2018-Oct-19 18:02N 50°53' W 001°24'0 0.0
2018-Oct-19 17:56N 50°53' W 001°24'0 0.0
2018-Oct-19 17:29N 50°53' W 001°24'0 0.0
2018-Oct-19 17:03N 50°53' W 001°24'0 0.0
2018-Oct-19 16:59N 50°53' W 001°24'0 0.0
2018-Oct-19 16:29N 50°53' W 001°24'0 0.0
2018-Oct-19 15:59N 50°53' W 001°24'0 0.0
2018-Oct-19 15:29N 50°53' W 001°24'0 0.0
2018-Oct-19 15:02N 50°53' W 001°24'0 0.0
2018-Oct-19 14:59N 50°53' W 001°24'0 0.0
2018-Oct-19 14:29N 50°53' W 001°24'0 0.0
2018-Oct-19 13:29N 50°53' W 001°24'0 0.0
2018-Oct-19 13:02N 50°53' W 001°24'0 0.0
2018-Oct-19 12:59N 50°53' W 001°24'0 0.0
2018-Oct-19 12:29N 50°53' W 001°24'0 0.0
2018-Oct-19 12:02N 50°53' W 001°24'0 0.0
2018-Oct-19 11:59N 50°53' W 001°24'0 0.0
2018-Oct-19 11:29N 50°53' W 001°24'0 0.0
2018-Oct-19 11:02N 50°53' W 001°24'0 0.0
2018-Oct-19 10:59N 50°53' W 001°24'0 0.0
2018-Oct-19 10:29N 50°53' W 001°24'0 0.0
2018-Oct-19 10:02N 50°53' W 001°24'0 0.0
2018-Oct-19 09:56N 50°53' W 001°24'0 0.0
2018-Oct-19 09:28N 50°53' W 001°24'0 0.0
2018-Oct-19 09:01N 50°53' W 001°24'0 0.1
2018-Oct-19 08:58N 50°53' W 001°24'0 0.0
2018-Oct-19 08:28N 50°53' W 001°24'0 0.0
2018-Oct-19 08:03N 50°53' W 001°24'0 0.1
2018-Oct-19 07:57N 50°53' W 001°24'0 0.0
2018-Oct-19 07:27N 50°53' W 001°24'0 0.0
2018-Oct-19 07:02N 50°53' W 001°24'0 0.1
2018-Oct-19 06:59N 50°53' W 001°24'0 0.0
2018-Oct-19 06:29N 50°53' W 001°24'0 0.0
2018-Oct-19 06:01N 50°53' W 001°24'0 0.0
2018-Oct-19 05:58N 50°53' W 001°24'0 0.4
2018-Oct-19 05:30N 50°53' W 001°24'2 4.3
2018-Oct-19 05:03N 50°52' W 001°22'111.6
2018-Oct-19 05:00N 50°52' W 001°21'4 8.5
2018-Oct-19 04:30N 50°48' W 001°18'4 9.5
2018-Oct-19 04:03N 50°46' W 001°12'117.4
2018-Oct-19 04:00N 50°46' W 001°11'816.3
2018-Oct-19 03:30N 50°43' W 000°59'510.6
2018-Oct-19 03:03N 50°38' W 000°58'010.0
2018-Oct-19 03:00N 50°37' W 000°58'5 9.4
2018-Oct-19 02:31N 50°34' W 000°54'511.7
2018-Oct-19 02:04N 50°33' W 000°46'111.9
2018-Oct-19 02:01N 50°33' W 000°45'612.2
2018-Oct-19 01:31N 50°32' W 000°36'612.7
2018-Oct-19 01:02N 50°31' W 000°26'112.8
2018-Oct-19 00:56N 50°31' W 000°24'1511.5
2018-Oct-18 23:38N 50°17' W 000°17'1113.7
2018-Oct-18 22:48N 50°06' W 000°10'412.9
2018-Oct-18 22:30N 50°02' W 000°08'512.0
2018-Oct-18 22:03N 50°01' W 000°16'112.1
2018-Oct-18 21:59N 50°00' W 000°17'612.1
2018-Oct-18 21:30N 49°59' W 000°26'511.8
2018-Oct-18 21:03N 49°58' W 000°34'111.7
2018-Oct-18 21:00N 49°57' W 000°35'8517.1
2018-Oct-18 21:00N 49°54' W 000°24'1326.4 040 / 301024.510.8 14.611.417.0
2018-Oct-18 20:30N 49°56' W 000°44'511.7
2018-Oct-18 20:03N 49°55' W 000°52'111.8
2018-Oct-18 20:00N 49°55' W 000°53'611.9
2018-Oct-18 19:31N 49°54' W 001°02'512.0
2018-Oct-18 19:04N 49°53' W 001°10'112.2
2018-Oct-18 19:01N 49°52' W 001°11'611.8
2018-Oct-18 18:30N 49°51' W 001°20'511.2
2018-Oct-18 18:03N 49°50' W 001°27'111.6
2018-Oct-18 18:00N 49°50' W 001°28'611.5
2018-Oct-18 17:31N 49°47' W 001°36'510.5
2018-Oct-18 17:03N 49°44' W 001°41'111.9
2018-Oct-18 17:01N 49°43' W 001°40'4 8.1
2018-Oct-18 16:30N 49°40' W 001°37'1 1.8
2018-Oct-18 16:01N 49°39' W 001°37'0 0.0
2018-Oct-18 15:58N 49°39' W 001°37'0 0.0
2018-Oct-18 15:28N 49°39' W 001°37'0 0.0
2018-Oct-18 15:01N 49°39' W 001°37'0 0.0
2018-Oct-18 14:58N 49°39' W 001°37'0 0.0
2018-Oct-18 14:28N 49°39' W 001°37'0 0.0
2018-Oct-18 13:58N 49°39' W 001°37'0 0.0
2018-Oct-18 13:28N 49°39' W 001°37'0 0.0
2018-Oct-18 13:01N 49°39' W 001°37'0 0.0
2018-Oct-18 12:58N 49°39' W 001°37'0 0.0
2018-Oct-18 12:28N 49°39' W 001°37'0 0.0
2018-Oct-18 12:01N 49°39' W 001°37'0 0.0
2018-Oct-18 11:58N 49°39' W 001°37'0 0.0
2018-Oct-18 11:28N 49°39' W 001°37'0 0.0
2018-Oct-18 11:01N 49°39' W 001°37'0 0.0
2018-Oct-18 10:58N 49°39' W 001°37'0 0.0
2018-Oct-18 10:28N 49°39' W 001°37'0 0.0
2018-Oct-18 10:01N 49°39' W 001°37'0 0.0
2018-Oct-18 09:58N 49°39' W 001°37'0 0.0
2018-Oct-18 09:28N 49°39' W 001°37'0 0.0
2018-Oct-18 09:01N 49°39' W 001°37'0 0.0
2018-Oct-18 08:58N 49°39' W 001°37'0 0.0
2018-Oct-18 08:28N 49°39' W 001°37'0 0.0
2018-Oct-18 08:01N 49°39' W 001°37'0 0.0
2018-Oct-18 07:58N 49°39' W 001°37'0 0.0
2018-Oct-18 07:28N 49°39' W 001°37'0 0.0
2018-Oct-18 07:01N 49°39' W 001°37'0 0.0
2018-Oct-18 06:58N 49°39' W 001°37'0 0.0
2018-Oct-18 06:28N 49°39' W 001°37'0 0.0
2018-Oct-18 06:01N 49°39' W 001°37'0 0.0
2018-Oct-18 05:58N 49°39' W 001°37'0 0.0
2018-Oct-18 05:30N 49°39' W 001°37'1 2.0
2018-Oct-18 05:04N 49°40' W 001°37'0 5.3
2018-Oct-18 05:00N 49°40' W 001°37'510.4
2018-Oct-18 04:30N 49°44' W 001°43'511.3
2018-Oct-18 04:03N 49°47' W 001°49'113.5
2018-Oct-18 04:01N 49°47' W 001°50'815.4
2018-Oct-18 03:30N 49°49' W 002°02'1115.7
2018-Oct-18 02:47N 49°52' W 002°18'1017.8
2018-Oct-18 02:13N 49°51' W 002°34'318.4
2018-Oct-18 02:03N 49°50' W 002°39'218.4
2018-Oct-18 01:58N 49°50' W 002°41'1618.1
2018-Oct-18 01:04N 49°42' W 003°03'6518.1
2018-Oct-17 21:29N 49°03' W 004°23'3 6.3
2018-Oct-17 21:00N 49°00' W 004°24'8131.3 030 / 181021.510.8 14.412.814.0
2018-Oct-17 20:56N 48°57' W 004°35'817.9
2018-Oct-17 20:30N 48°53' W 004°45'818.0
2018-Oct-17 20:03N 48°48' W 004°54'117.9
2018-Oct-17 20:00N 48°47' W 004°56'917.6
2018-Oct-17 19:30N 48°42' W 005°06'817.5
2018-Oct-17 19:03N 48°37' W 005°15'117.5
2018-Oct-17 19:00N 48°36' W 005°16'917.0
2018-Oct-17 18:30N 48°30' W 005°25'1316.9
2018-Oct-17 17:43N 48°19' W 005°36'40018.9
2018-Oct-16 20:35N 42°12' W 009°22'1418.8
2018-Oct-16 19:49N 41°58' W 009°15'4618.0
2018-Oct-16 17:15N 41°14' W 008°54'516.8
2018-Oct-16 16:58N 41°10' W 008°52'714.5
2018-Oct-16 16:30N 41°06' W 008°45'510.5
2018-Oct-16 16:03N 41°11' W 008°42'0 1.4
2018-Oct-16 16:00N 41°11' W 008°42'0 0.2
2018-Oct-16 15:30N 41°11' W 008°42'0 0.0
2018-Oct-16 15:02N 41°11' W 008°42'0 0.0
2018-Oct-16 14:59N 41°11' W 008°42'0 0.0
2018-Oct-16 14:02N 41°11' W 008°42'0 0.1
2018-Oct-16 13:59N 41°11' W 008°42'0 0.0
2018-Oct-16 13:29N 41°11' W 008°42'0 0.0
2018-Oct-16 13:00N 41°11' W 008°42'0 0.0
2018-Oct-16 12:30N 41°11' W 008°42'0 0.0
2018-Oct-16 12:02N 41°11' W 008°42'0 0.0
2018-Oct-16 11:59N 41°11' W 008°42'0 0.0
2018-Oct-16 11:29N 41°11' W 008°42'0 0.0
2018-Oct-16 11:04N 41°11' W 008°42'0 0.0
2018-Oct-16 10:58N 41°11' W 008°42'0 0.0
2018-Oct-16 10:28N 41°11' W 008°42'0 0.0
2018-Oct-16 10:03N 41°11' W 008°42'0 0.0
2018-Oct-16 09:59N 41°11' W 008°42'0 0.0
2018-Oct-16 09:30N 41°11' W 008°42'0 0.0
2018-Oct-16 09:01N 41°11' W 008°42'0 0.0
2018-Oct-16 08:58N 41°11' W 008°42'0 0.0
2018-Oct-16 08:30N 41°11' W 008°42'0 0.0
2018-Oct-16 08:02N 41°11' W 008°42'0 0.0
2018-Oct-16 07:59N 41°11' W 008°42'0 0.3
2018-Oct-16 07:30N 41°11' W 008°42'2 4.1
2018-Oct-16 07:03N 41°09' W 008°42'110.2
2018-Oct-16 07:00N 41°08' W 008°43'611.5
2018-Oct-16 06:30N 41°04' W 008°47'9713.8
2018-Oct-15 23:29N 39°36' W 009°41'715.1
2018-Oct-15 23:03N 39°29' W 009°43'115.2
2018-Oct-15 22:59N 39°28' W 009°43'715.0
2018-Oct-15 22:30N 39°21' W 009°43'614.3
2018-Oct-15 22:04N 39°15' W 009°43'114.3
2018-Oct-15 22:00N 39°14' W 009°43'714.2
2018-Oct-15 21:30N 39°07' W 009°43'714.7
2018-Oct-15 21:03N 39°00' W 009°43'114.3
2018-Oct-15 21:00N 38°60' W 009°43'714.2
2018-Oct-15 20:30N 38°52' W 009°43'613.8
2018-Oct-15 20:03N 38°46' W 009°42'113.7
2018-Oct-15 20:00N 38°46' W 009°42'713.6
2018-Oct-15 19:31N 38°39' W 009°40'715.6
2018-Oct-15 19:04N 38°36' W 009°31'115.6
2018-Oct-15 19:01N 38°36' W 009°30'714.7
2018-Oct-15 18:30N 38°38' W 009°21'613.7
2018-Oct-15 18:03N 38°41' W 009°14'1 9.3
2018-Oct-15 18:00N 38°41' W 009°13'4 9.1
2018-Oct-15 17:30N 38°42' W 009°08'0 1.0
2018-Oct-15 17:03N 38°43' W 009°08'0 0.0
2018-Oct-15 17:00N 38°43' W 009°08'0 0.0
2018-Oct-15 16:30N 38°43' W 009°08'0 0.0
2018-Oct-15 16:01N 38°43' W 009°08'0 0.0
2018-Oct-15 15:58N 38°43' W 009°08'0 0.0
2018-Oct-15 15:30N 38°43' W 009°08'0 0.0
2018-Oct-15 15:02N 38°43' W 009°08'0 0.0
2018-Oct-15 15:00N 38°43' W 009°08'0 0.0
2018-Oct-15 14:30N 38°43' W 009°08'0 0.0
2018-Oct-15 13:59N 38°43' W 009°08'0 0.0
2018-Oct-15 13:28N 38°43' W 009°08'0 0.0
2018-Oct-15 13:03N 38°43' W 009°08'0 0.0
2018-Oct-15 13:00N 38°43' W 009°08'0 0.0
2018-Oct-15 12:28N 38°43' W 009°08'0 0.0
2018-Oct-15 12:01N 38°43' W 009°08'0 0.0
2018-Oct-15 12:01N 38°43' W 009°08'0 0.0
2018-Oct-15 11:30N 38°43' W 009°08'0 0.0
2018-Oct-15 11:02N 38°43' W 009°08'0 0.0
2018-Oct-15 10:59N 38°43' W 009°08'0 0.0
2018-Oct-15 10:29N 38°43' W 009°08'0 0.0
2018-Oct-15 10:04N 38°43' W 009°08'0 0.0
2018-Oct-15 10:01N 38°43' W 009°08'0 0.0
2018-Oct-15 09:29N 38°43' W 009°08'0 0.0
2018-Oct-15 09:03N 38°43' W 009°08'0 0.0
2018-Oct-15 09:00N 38°43' W 009°08'0 0.0
2018-Oct-15 08:29N 38°43' W 009°08'0 0.0
2018-Oct-15 08:04N 38°43' W 009°08'0 0.0
2018-Oct-15 07:59N 38°43' W 009°08'0 0.0
2018-Oct-15 07:28N 38°43' W 009°08'0 0.0
2018-Oct-15 07:03N 38°43' W 009°08'0 0.0
2018-Oct-15 07:00N 38°43' W 009°08'0 0.2
2018-Oct-15 06:30N 38°42' W 009°08'510.1
2018-Oct-15 06:03N 38°41' W 009°13'0 8.9
2018-Oct-15 06:00N 38°41' W 009°14'510.6
2018-Oct-15 05:30N 38°39' W 009°20'612.6
2018-Oct-15 05:03N 38°35' W 009°25'112.5
2018-Oct-15 05:00N 38°35' W 009°26'612.5
2018-Oct-15 04:30N 38°34' W 009°34'612.8
2018-Oct-15 04:03N 38°34' W 009°41'112.8
2018-Oct-15 04:00N 38°34' W 009°42'612.8
2018-Oct-15 03:30N 38°33' W 009°50'612.7
2018-Oct-15 03:03N 38°35' W 009°57'112.9
2018-Oct-15 03:00N 38°35' W 009°58'611.2
2018-Oct-15 02:30N 38°38' W 010°04'613.3
2018-Oct-15 02:03N 38°44' W 010°06'112.1
2018-Oct-15 02:00N 38°44' W 010°06'713.5
2018-Oct-15 01:30N 38°51' W 010°06'613.4
2018-Oct-15 01:03N 38°57' W 010°06'113.7
2018-Oct-15 01:00N 38°58' W 010°06'713.8
2018-Oct-15 00:30N 39°05' W 010°06'614.1
2018-Oct-15 00:03N 39°11' W 010°06'116.0
2018-Oct-15 00:00N 39°12' W 010°06'815.6
2018-Oct-14 23:30N 39°20' W 010°06'715.0
2018-Oct-14 23:02N 39°27' W 010°06'115.2
2018-Oct-14 22:59N 39°27' W 010°06'  

Dump ship's entire track history